Terminal Aerodrome Forecast
Issued by NWS Sterling, VA

Current Version | Previous Version | Text Only | Print | Product List | Glossary Off
Versions: 1 2 3 4 5 6 7 8 9 10 11 12 13 14 15 16

736
FTUS41 KLWX 091120
TAFMRB
TAF
KMRB 091120Z 0912/1012 00000KT P6SM OVC050
     FM091300 00000KT 3SM -SN OVC025
     FM091700 VRB03KT 5SM -SN OVC025
     FM092000 VRB03KT P6SM BKN080
     FM100400 28010KT P6SM SCT080=

USA.gov is the U.S. government's official web portal to all federal, state and local government web resources and services.